Time;durP1;ratioP1;P1;durP2;ratioP2;P2;SDS_P1;SDS_P2;PMS_P1;PMS_P2;Temp;Humidity;BMP_temperature;BMP_pressure;BME280_temperature;BME280_humidity;BME280_pressure;Samples;Min_cycle;Max_cycle;Signal;HPM_P1;HPM_P2
2022/06/09 00:00:42;;;;;;;0.52;0.30;;;;;;;28.18;34.97;96067.78;5042733;28;20033;-32
2022/06/09 00:03:18;;;;;;;1.63;0.50;;;;;;;28.20;34.96;96074.72;5023382;28;20029;-34
2022/06/09 00:05:43;;;;;;;1.70;0.57;;;;;;;28.18;34.92;96073.06;5028203;28;20709;-33
2022/06/09 00:08:09;;;;;;;0.70;0.57;;;;;;;28.18;34.79;96080.94;5025240;28;20032;-31
2022/06/09 00:10:37;;;;;;;1.30;0.40;;;;;;;28.20;34.91;96087.91;5041646;28;20035;-30
2022/06/09 00:13:03;;;;;;;0.40;0.28;;;;;;;28.20;34.89;96098.44;5039799;28;20025;-31
2022/06/09 00:15:28;;;;;;;0.50;0.45;;;;;;;28.17;35.00;96100.34;5042027;28;20078;-30
2022/06/09 00:17:53;;;;;;;2.20;0.50;;;;;;;28.18;34.98;96106.44;5045672;28;20032;-31
2022/06/09 00:20:19;;;;;;;1.23;0.35;;;;;;;28.17;34.86;96100.34;5044087;28;20044;-32
2022/06/09 00:22:44;;;;;;;2.63;0.40;;;;;;;28.17;34.65;96089.81;5040662;28;20555;-31
2022/06/09 00:25:10;;;;;;;1.08;0.30;;;;;;;28.18;34.77;96096.75;5044886;28;20029;-37
2022/06/09 00:27:35;;;;;;;1.73;0.55;;;;;;;28.18;34.81;96101.19;5043373;28;20051;-34
2022/06/09 00:30:05;;;;;;;0.88;0.45;;;;;;;28.18;34.97;96106.44;5042120;28;20573;-32
2022/06/09 00:32:31;;;;;;;0.60;0.30;;;;;;;28.17;34.89;96108.25;5042919;28;20024;-32
2022/06/09 00:34:56;;;;;;;1.02;0.40;;;;;;;28.17;34.92;96110.91;5042251;28;20112;-33
2022/06/09 00:37:22;;;;;;;1.30;0.40;;;;;;;28.17;34.86;96116.16;5042809;28;20033;-34
2022/06/09 00:39:47;;;;;;;1.45;0.30;;;;;;;28.17;34.91;96115.31;5041834;28;20090;-30
2022/06/09 00:42:12;;;;;;;1.35;0.30;;;;;;;28.17;34.88;96116.16;5040600;28;20031;-31
2022/06/09 00:44:38;;;;;;;0.30;0.22;;;;;;;28.17;34.86;96110.03;5042971;28;20679;-31
2022/06/09 00:47:19;;;;;;;0.30;0.30;;;;;;;28.17;34.78;96120.56;5040292;28;20028;-31
2022/06/09 00:49:47;;;;;;;0.60;0.32;;;;;;;28.17;34.85;96110.91;5023822;28;20697;-32
2022/06/09 00:52:15;;;;;;;0.55;0.30;;;;;;;28.16;34.83;96109.22;5043748;28;20037;-38
2022/06/09 00:54:43;;;;;;;1.10;0.30;;;;;;;28.17;34.86;96116.16;5023266;28;20031;-32
2022/06/09 00:57:14;;;;;;;1.25;0.50;;;;;;;28.17;34.85;96116.16;5014793;28;20036;-31
2022/06/09 00:59:41;;;;;;;0.70;0.40;;;;;;;28.17;34.68;96110.03;5041807;28;20513;-35
2022/06/09 01:02:07;;;;;;;0.28;0.28;;;;;;;28.16;34.66;96109.22;5042344;28;20141;-32
2022/06/09 01:04:33;;;;;;;0.30;0.30;;;;;;;28.17;34.74;96121.44;5008135;28;20033;-32
2022/06/09 01:07:02;;;;;;;0.38;0.30;;;;;;;28.17;34.87;96120.56;5043768;28;20021;-31
2022/06/09 01:09:28;;;;;;;0.50;0.30;;;;;;;28.16;34.87;96109.22;5042767;28;20510;-32
2022/06/09 01:11:54;;;;;;;0.35;0.30;;;;;;;28.16;34.66;96103.94;5009222;28;20032;-33
2022/06/09 01:14:22;;;;;;;2.13;0.50;;;;;;;28.18;34.76;96109.94;5039531;28;20035;-31
2022/06/09 01:16:54;;;;;;;0.80;0.28;;;;;;;28.16;34.96;96114.50;5039924;28;20024;-31
2022/06/09 01:20:08;;;;;;;0.77;0.40;;;;;;;28.18;34.71;96112.56;5023831;28;20036;-33
2022/06/09 01:22:33;;;;;;;1.08;0.40;;;;;;;28.19;34.61;96113.41;4990679;28;20045;-31
2022/06/09 01:25:05;;;;;;;0.20;0.20;;;;;;;28.18;34.66;96109.06;5042063;28;20036;-33
2022/06/09 01:27:55;;;;;;;1.52;0.50;;;;;;;28.17;34.77;96110.91;5041226;28;20059;-30
2022/06/09 01:30:50;;;;;;;0.57;0.20;;;;;;;28.19;34.74;96123.97;5006979;28;20098;-31
2022/06/09 01:33:34;;;;;;;0.30;0.20;;;;;;;28.18;34.76;96128.38;5021656;28;20055;-33
2022/06/09 01:36:02;;;;;;;0.47;0.38;;;;;;;28.19;34.82;96118.69;5042524;28;20131;-31
2022/06/09 01:38:27;;;;;;;6.13;0.50;;;;;;;28.17;34.54;96124.06;5036055;28;20036;-35
2022/06/09 01:40:53;;;;;;;0.63;0.32;;;;;;;28.17;34.71;96121.44;5039629;28;20037;-32
2022/06/09 01:43:18;;;;;;;1.88;0.30;;;;;;;28.18;34.67;96116.97;5037382;28;20040;-32
2022/06/09 01:45:47;;;;;;;0.28;0.25;;;;;;;28.18;34.65;96117.84;5021707;28;20036;-32
2022/06/09 01:48:13;;;;;;;1.55;0.40;;;;;;;28.17;34.45;96116.16;5035486;28;20032;-32
2022/06/09 01:50:54;;;;;;;0.60;0.20;;;;;;;28.18;34.42;96116.97;5021633;28;20881;-32
2022/06/09 01:53:20;;;;;;;0.57;0.30;;;;;;;28.20;34.62;96124.78;5040909;28;20028;-31
2022/06/09 01:55:48;;;;;;;0.80;0.20;;;;;;;28.18;34.50;96128.38;5039788;28;20032;-32
2022/06/09 01:58:15;;;;;;;0.98;0.40;;;;;;;28.18;34.61;96128.38;5022051;28;20471;-31
2022/06/09 02:00:40;;;;;;;1.27;0.40;;;;;;;28.18;34.48;96132.78;5013291;28;20028;-35
2022/06/09 02:03:09;;;;;;;0.65;0.30;;;;;;;28.18;34.62;96136.28;5031272;28;20032;-31
2022/06/09 02:05:42;;;;;;;0.20;0.20;;;;;;;28.18;34.55;96125.75;5027628;28;20032;-32
2022/06/09 02:08:11;;;;;;;0.20;0.20;;;;;;;28.18;34.71;96116.97;5026828;28;20125;-32
2022/06/09 02:10:38;;;;;;;0.47;0.30;;;;;;;28.20;34.68;96124.78;5013452;28;20029;-32
2022/06/09 02:13:13;;;;;;;0.50;0.30;;;;;;;28.18;34.74;96130.16;5014222;28;20033;-31
2022/06/09 02:15:42;;;;;;;0.30;0.10;;;;;;;28.20;34.61;96130.03;5008206;28;20029;-32
2022/06/09 02:18:11;;;;;;;0.47;0.20;;;;;;;28.18;34.58;96130.16;5027476;28;20036;-32
2022/06/09 02:20:37;;;;;;;0.30;0.30;;;;;;;28.19;34.57;96139.75;5046874;28;20036;-31
2022/06/09 02:23:02;;;;;;;0.40;0.30;;;;;;;28.17;34.57;96137.25;5025265;28;20024;-33
2022/06/09 02:25:27;;;;;;;0.40;0.30;;;;;;;28.18;34.55;96141.53;5045521;28;20029;-38
2022/06/09 02:27:53;;;;;;;0.20;0.20;;;;;;;28.19;34.61;96139.75;5040973;28;20150;-34
2022/06/09 02:30:18;;;;;;;0.73;0.30;;;;;;;28.18;34.66;96133.63;5045632;28;20559;-34
2022/06/09 02:32:44;;;;;;;0.75;0.28;;;;;;;28.18;34.62;96136.28;5042377;28;20063;-34
2022/06/09 02:35:09;;;;;;;0.57;0.40;;;;;;;28.18;34.45;96138.91;5041999;28;20122;-32
2022/06/09 02:37:35;;;;;;;0.50;0.30;;;;;;;28.20;34.65;96135.31;5042148;28;21011;-32
2022/06/09 02:40:00;;;;;;;0.55;0.20;;;;;;;28.18;34.34;96138.91;5027573;28;20755;-31
2022/06/09 02:42:26;;;;;;;0.88;0.40;;;;;;;28.18;34.49;96138.06;5045377;28;20130;-32
2022/06/09 02:44:51;;;;;;;0.73;0.30;;;;;;;28.18;34.57;96138.91;5043636;28;20479;-31
2022/06/09 02:47:17;;;;;;;0.30;0.30;;;;;;;28.19;34.64;96139.75;5044581;28;21208;-36
2022/06/09 02:49:44;;;;;;;0.45;0.30;;;;;;;28.18;34.67;96133.63;5043279;28;20125;-33
2022/06/09 02:52:09;;;;;;;0.50;0.30;;;;;;;28.19;34.51;96139.75;5039186;28;20102;-31
2022/06/09 02:54:34;;;;;;;0.55;0.30;;;;;;;28.19;34.71;96142.41;5047414;28;20687;-34
2022/06/09 02:57:00;;;;;;;0.28;0.22;;;;;;;28.18;34.45;96144.19;5052041;28;20044;-35
2022/06/09 02:59:25;;;;;;;0.30;0.30;;;;;;;28.19;34.55;96152.94;5055832;28;20035;-32
2022/06/09 03:01:51;;;;;;;0.25;0.20;;;;;;;28.20;34.43;96151.13;5052953;28;20742;-30
2022/06/09 03:04:16;;;;;;;1.35;0.45;;;;;;;28.18;34.51;96157.34;5053159;28;20024;-32
2022/06/09 03:06:41;;;;;;;0.30;0.20;;;;;;;28.19;34.46;96155.56;5050427;28;20039;-33
2022/06/09 03:09:07;;;;;;;2.78;0.20;;;;;;;28.20;34.53;96156.38;5053632;28;20039;-32
2022/06/09 03:11:32;;;;;;;0.52;0.35;;;;;;;28.18;34.61;96165.25;5050158;28;20028;-31
2022/06/09 03:13:58;;;;;;;0.90;0.20;;;;;;;28.20;34.47;96161.66;5056632;28;20032;-35
2022/06/09 03:16:23;;;;;;;0.90;0.30;;;;;;;28.18;34.52;96167.88;5048705;28;20632;-31
2022/06/09 03:18:48;;;;;;;0.17;0.17;;;;;;;28.18;34.37;96175.78;5047878;28;20037;-29
2022/06/09 03:21:14;;;;;;;0.38;0.20;;;;;;;28.18;34.47;96175.78;5050771;28;20035;-31
2022/06/09 03:23:39;;;;;;;0.28;0.20;;;;;;;28.19;34.59;96176.63;5055528;28;20083;-31
2022/06/09 03:26:05;;;;;;;1.27;0.30;;;;;;;28.18;34.47;96169.66;5051435;28;20055;-31
2022/06/09 03:28:30;;;;;;;0.35;0.20;;;;;;;28.18;34.45;96167.88;5052322;28;20075;-32
2022/06/09 03:30:56;;;;;;;0.45;0.30;;;;;;;28.18;34.55;96170.53;5054762;28;20024;-31
2022/06/09 03:33:21;;;;;;;0.68;0.22;;;;;;;28.19;34.57;96181.91;5031436;28;20502;-34
2022/06/09 03:35:47;;;;;;;0.20;0.20;;;;;;;28.20;34.44;96180.09;5053113;28;20161;-36
2022/06/09 03:38:12;;;;;;;0.90;0.30;;;;;;;28.18;34.59;96186.31;5053230;28;20029;-31
2022/06/09 03:40:37;;;;;;;0.30;0.30;;;;;;;28.16;34.35;96193.50;5052644;28;20327;-32
2022/06/09 03:43:03;;;;;;;0.35;0.30;;;;;;;28.18;34.47;96191.59;5049928;28;20029;-31
2022/06/09 03:45:30;;;;;;;0.95;0.22;;;;;;;28.18;34.63;96191.59;5051023;28;20041;-33
2022/06/09 03:47:55;;;;;;;2.00;0.20;;;;;;;28.18;34.34;96199.50;5051403;28;20023;-32
2022/06/09 03:50:26;;;;;;;0.20;0.20;;;;;;;28.18;34.48;96206.56;5051250;28;20037;-32
2022/06/09 03:52:51;;;;;;;0.23;0.20;;;;;;;28.18;34.37;96202.13;5052150;28;20482;-33
2022/06/09 03:55:17;;;;;;;0.35;0.20;;;;;;;28.18;34.53;96196.88;5052223;28;20078;-35
2022/06/09 03:57:42;;;;;;;0.45;0.20;;;;;;;28.18;34.43;96193.38;5054040;28;20024;-32
2022/06/09 04:00:10;;;;;;;0.20;0.20;;;;;;;28.20;34.57;96195.91;5051643;28;20076;-32
2022/06/09 04:02:35;;;;;;;0.20;0.20;;;;;;;28.18;34.65;96204.75;5038921;28;20032;-31
2022/06/09 04:05:02;;;;;;;0.77;0.32;;;;;;;28.19;34.40;96208.25;5051176;28;20028;-31
2022/06/09 04:07:27;;;;;;;0.30;0.30;;;;;;;28.18;34.45;96212.66;5052488;28;20472;-32
2022/06/09 04:09:53;;;;;;;0.88;0.30;;;;;;;28.17;34.44;96211.00;5053161;28;20481;-34
2022/06/09 04:12:18;;;;;;;0.65;0.32;;;;;;;28.18;34.50;96223.22;5050496;28;20975;-31
2022/06/09 04:14:44;;;;;;;1.00;0.30;;;;;;;28.17;34.41;96224.16;5052328;28;20556;-31
2022/06/09 04:17:11;;;;;;;0.40;0.20;;;;;;;28.18;34.44;96228.47;5048588;28;20035;-31
2022/06/09 04:19:36;;;;;;;0.20;0.20;;;;;;;28.18;34.36;96227.63;5021032;28;20029;-31
2022/06/09 04:22:01;;;;;;;0.63;0.30;;;;;;;28.18;34.45;96225.84;5049705;28;20028;-32
2022/06/09 04:24:27;;;;;;;0.30;0.30;;;;;;;28.16;34.22;96230.41;5046708;28;20904;-32
2022/06/09 04:26:52;;;;;;;0.57;0.30;;;;;;;28.18;34.35;96239.00;5041549;28;20052;-35
2022/06/09 04:29:18;;;;;;;0.88;0.28;;;;;;;28.18;34.32;96239.00;5038291;28;20395;-30
2022/06/09 04:31:43;;;;;;;0.75;0.40;;;;;;;28.19;34.28;96231.97;5040874;28;20028;-32
2022/06/09 04:34:09;;;;;;;0.28;0.20;;;;;;;28.18;34.31;96239.00;5044039;28;20079;-30
2022/06/09 04:36:34;;;;;;;0.43;0.30;;;;;;;28.20;34.47;96248.59;5039639;28;20043;-37
2022/06/09 04:39:01;;;;;;;1.35;0.28;;;;;;;28.18;34.40;96249.56;5042817;28;20213;-34
2022/06/09 04:41:26;;;;;;;1.27;0.30;;;;;;;28.17;34.63;96247.88;5040384;28;20506;-31
2022/06/09 04:43:51;;;;;;;0.47;0.30;;;;;;;28.18;34.30;96254.81;5043973;28;20029;-35
2022/06/09 04:46:22;;;;;;;0.50;0.40;;;;;;;28.18;34.30;96259.22;5042704;28;20028;-33
2022/06/09 04:48:47;;;;;;;1.23;0.50;;;;;;;28.18;34.30;96257.44;5040422;28;20104;-33
2022/06/09 04:51:16;;;;;;;0.45;0.20;;;;;;;28.17;34.30;96261.06;5043043;28;20075;-31
2022/06/09 04:53:42;;;;;;;0.50;0.22;;;;;;;28.18;34.25;96268.00;5044354;28;20031;-31
2022/06/09 04:56:09;;;;;;;0.65;0.20;;;;;;;28.17;34.46;96263.69;5048293;28;20033;-36
2022/06/09 04:58:34;;;;;;;1.40;0.30;;;;;;;28.17;34.29;96263.69;5045979;28;20024;-32
2022/06/09 05:00:59;;;;;;;0.25;0.15;;;;;;;28.18;34.50;96273.25;5041152;28;20043;-30
2022/06/09 05:03:25;;;;;;;0.88;0.40;;;;;;;28.17;34.31;96279.50;5044027;28;20415;-31
2022/06/09 05:05:51;;;;;;;0.57;0.30;;;;;;;28.17;34.33;96279.50;5041544;28;20039;-32
2022/06/09 05:08:16;;;;;;;1.02;0.40;;;;;;;28.17;34.41;96279.50;5039032;28;20055;-32
2022/06/09 05:10:42;;;;;;;0.57;0.30;;;;;;;28.18;34.31;96275.91;5042661;28;20907;-34
2022/06/09 05:13:08;;;;;;;0.20;0.20;;;;;;;28.18;34.24;96275.91;5039002;28;20043;-34
2022/06/09 05:15:36;;;;;;;1.27;0.40;;;;;;;28.18;34.37;96290.84;5038713;28;20036;-33
2022/06/09 05:18:01;;;;;;;0.70;0.30;;;;;;;28.17;34.21;96287.38;5040904;28;20606;-32
2022/06/09 05:20:26;;;;;;;1.20;0.30;;;;;;;28.17;34.22;96284.75;5040069;28;20033;-32
2022/06/09 05:22:52;;;;;;;0.68;0.30;;;;;;;28.18;34.26;96288.22;5046504;28;20041;-33
2022/06/09 05:25:17;;;;;;;0.20;0.20;;;;;;;28.17;34.45;96295.28;5048123;28;20033;-34
2022/06/09 05:27:44;;;;;;;0.80;0.40;;;;;;;28.17;34.29;96284.75;5052160;28;20025;-33
2022/06/09 05:30:13;;;;;;;0.85;0.30;;;;;;;28.18;34.34;96304.03;5048026;28;20116;-33
2022/06/09 05:32:38;;;;;;;0.52;0.30;;;;;;;28.17;34.32;96302.34;5044490;28;20021;-34
2022/06/09 05:35:05;;;;;;;1.33;0.40;;;;;;;28.17;34.36;96307.63;5043582;28;20041;-31
2022/06/09 05:44:50;;;;;;;1.17;0.50;;;;;;;28.17;34.32;96302.34;5040678;28;20033;-32
2022/06/09 05:45:43;;;;;;;1.30;0.35;;;;;;;28.16;34.28;96309.44;5041893;28;20085;-32
2022/06/09 05:48:09;;;;;;;1.10;0.35;;;;;;;28.16;34.47;96313.84;5043240;28;20024;-32
2022/06/09 05:50:35;;;;;;;0.20;0.20;;;;;;;28.16;34.16;96309.44;5046083;28;20025;-32
2022/06/09 05:53:01;;;;;;;1.00;0.40;;;;;;;28.16;34.33;96303.31;5025957;28;20127;-32
2022/06/09 05:55:27;;;;;;;0.63;0.30;;;;;;;28.16;34.50;96305.94;5045171;28;20040;-31
2022/06/09 05:57:52;;;;;;;0.50;0.38;;;;;;;28.15;34.17;96307.72;5045335;28;20024;-32
2022/06/09 06:00:18;;;;;;;0.45;0.32;;;;;;;28.17;34.08;96312.88;5042377;28;20911;-33
2022/06/09 06:02:43;;;;;;;1.60;0.55;;;;;;;28.16;34.36;96313.84;5045817;28;20034;-32
2022/06/09 06:06:33;;;;;;;1.48;0.40;;;;;;;28.17;34.10;96315.50;5046202;28;21068;-34
2022/06/09 06:07:54;;;;;;;0.95;0.35;;;;;;;28.16;34.24;96325.22;5044427;28;21600;-31
2022/06/09 06:10:19;;;;;;;4.40;0.40;;;;;;;28.14;34.27;96316.56;5041991;28;20047;-34
2022/06/09 06:12:45;;;;;;;1.15;0.40;;;;;;;28.16;34.35;96319.97;5044211;28;20132;-31
2022/06/09 06:15:10;;;;;;;1.60;0.47;;;;;;;28.16;34.32;96324.38;5041121;28;20028;-31
2022/06/09 06:17:35;;;;;;;1.63;0.50;;;;;;;28.16;34.38;96325.22;5055625;28;20028;-31
2022/06/09 06:20:01;;;;;;;4.90;0.80;;;;;;;28.17;34.15;96326.06;5055896;28;20078;-32
2022/06/09 06:22:26;;;;;;;10.43;1.42;;;;;;;28.16;34.00;96330.50;5048732;28;20043;-31
2022/06/09 06:24:52;;;;;;;2.70;1.08;;;;;;;28.17;34.20;96334.81;5038382;28;20024;-38
2022/06/09 06:27:17;;;;;;;5.70;1.05;;;;;;;28.18;34.45;96339.13;5047885;28;20521;-33
2022/06/09 06:29:42;;;;;;;7.28;2.42;;;;;;;28.19;34.30;96339.97;5053439;28;20032;-37
2022/06/09 06:32:08;;;;;;;6.63;2.03;;;;;;;28.20;34.30;96346.06;5045758;28;20045;-32
2022/06/09 06:34:33;;;;;;;11.60;3.35;;;;;;;28.21;34.13;96331.94;5049031;28;20028;-31
2022/06/09 06:36:59;;;;;;;6.63;2.65;;;;;;;28.21;34.38;96350.38;5051823;28;20032;-31
2022/06/09 06:39:24;;;;;;;10.63;2.53;;;;;;;28.21;34.36;96350.38;5052047;28;20029;-32
2022/06/09 06:41:49;;;;;;;11.10;3.90;;;;;;;28.21;34.38;96353.88;5049187;28;20024;-33
2022/06/09 06:44:15;;;;;;;8.82;2.13;;;;;;;28.21;34.28;96356.50;5053233;28;20028;-33
2022/06/09 06:46:40;;;;;;;8.43;2.45;;;;;;;28.22;34.28;96371.34;5043726;28;20040;-32
2022/06/09 06:49:06;;;;;;;10.52;2.53;;;;;;;28.23;34.35;96366.94;5042620;28;20060;-37
2022/06/09 06:51:33;;;;;;;5.95;2.30;;;;;;;28.23;34.36;96367.78;5049811;28;20062;-35
2022/06/09 06:53:59;;;;;;;7.00;2.47;;;;;;;28.24;34.33;96373.88;5041942;28;20808;-32
2022/06/09 06:56:24;;;;;;;6.70;2.90;;;;;;;28.24;34.38;96373.88;5043565;28;20031;-33
2022/06/09 06:58:50;;;;;;;8.05;2.70;;;;;;;28.25;34.16;96372.94;5046122;28;20693;-34
2022/06/09 07:01:15;;;;;;;8.95;3.03;;;;;;;28.26;33.98;96387.84;5044245;28;20057;-31
2022/06/09 07:03:40;;;;;;;7.05;2.67;;;;;;;28.27;34.39;96381.63;5042154;28;20024;-32
2022/06/09 07:06:08;;;;;;;6.70;2.85;;;;;;;28.27;34.09;96385.06;5047938;28;20538;-37
2022/06/09 07:08:35;;;;;;;7.47;3.10;;;;;;;28.28;34.07;96391.19;5042942;28;20110;-32
2022/06/09 07:11:00;;;;;;;6.82;2.58;;;;;;;28.28;34.11;96378.03;5040669;28;20072;-33
2022/06/09 07:13:26;;;;;;;8.45;2.63;;;;;;;28.29;33.95;96387.59;5037414;28;20036;-32
2022/06/09 07:15:52;;;;;;;8.85;3.10;;;;;;;28.29;34.13;96396.38;5035846;28;20762;-32
2022/06/09 07:18:17;;;;;;;6.88;2.60;;;;;;;28.30;34.04;96387.50;5049727;28;20629;-33
2022/06/09 07:20:43;;;;;;;5.25;2.45;;;;;;;28.31;34.21;96396.25;5042204;28;20028;-37
2022/06/09 07:23:08;;;;;;;7.28;2.60;;;;;;;28.33;34.09;96399.63;5047867;28;20655;-31
2022/06/09 07:25:34;;;;;;;8.18;2.60;;;;;;;28.34;33.93;96392.56;5045728;28;20556;-32
2022/06/09 07:27:59;;;;;;;7.70;2.40;;;;;;;28.32;33.26;96400.56;5043901;28;20036;-33
2022/06/09 07:30:25;;;;;;;5.85;1.70;;;;;;;28.26;32.66;96393.13;5051352;28;20534;-33
2022/06/09 07:32:50;;;;;;;5.72;1.60;;;;;;;28.16;32.05;96406.91;5049275;28;20077;-30
2022/06/09 07:35:19;;;;;;;3.97;1.50;;;;;;;28.05;31.46;96406.78;5049318;28;20103;-30
2022/06/09 07:37:45;;;;;;;6.22;1.45;;;;;;;27.90;31.22;96396.34;5043246;28;21493;-31
2022/06/09 07:40:11;;;;;;;4.22;1.30;;;;;;;27.77;31.03;96403.41;5050025;28;20036;-30
2022/06/09 07:42:36;;;;;;;8.35;2.00;;;;;;;27.62;30.93;96410.53;5051090;28;20967;-31
2022/06/09 07:45:03;;;;;;;8.93;1.83;;;;;;;27.46;30.86;96405.41;5048303;28;20028;-30
2022/06/09 07:47:29;;;;;;;10.40;2.00;;;;;;;27.35;30.77;96414.03;5040982;28;20025;-33
2022/06/09 07:49:54;;;;;;;5.45;1.42;;;;;;;27.23;30.76;96413.88;5039741;28;20044;-33
2022/06/09 07:52:19;;;;;;;13.80;1.83;;;;;;;27.17;31.14;96426.56;5042656;28;20551;-32
2022/06/09 07:54:45;;;;;;;7.95;2.00;;;;;;;27.11;31.34;96418.16;5039097;28;20507;-30
2022/06/09 07:57:11;;;;;;;9.73;1.60;;;;;;;27.11;31.31;96418.16;5041776;28;20025;-31
2022/06/09 07:59:37;;;;;;;4.35;1.42;;;;;;;27.11;31.46;96428.66;5048157;28;20032;-30
2022/06/09 08:02:02;;;;;;;5.15;1.65;;;;;;;27.13;31.28;96421.53;5049351;28;20045;-38
2022/06/09 08:04:27;;;;;;;5.10;1.65;;;;;;;27.15;31.58;96428.47;5049546;28;20032;-31
2022/06/09 08:06:53;;;;;;;4.30;1.38;;;;;;;27.19;31.24;96420.28;5048204;28;20020;-30
2022/06/09 08:09:18;;;;;;;6.47;1.95;;;;;;;27.22;31.35;96425.34;5039169;28;20497;-35
2022/06/09 08:11:45;;;;;;;12.80;2.50;;;;;;;27.24;31.18;96412.09;5027553;28;20036;-30
2022/06/09 08:14:10;;;;;;;12.75;2.78;;;;;;;27.22;30.68;96422.72;5039100;28;20047;-31
2022/06/09 08:16:36;;;;;;;6.15;1.92;;;;;;;27.19;30.69;96429.97;5048471;28;20056;-30
2022/06/09 08:19:01;;;;;;;6.80;1.85;;;;;;;27.17;30.40;96426.56;5041626;28;20036;-30
2022/06/09 08:21:27;;;;;;;4.60;1.58;;;;;;;27.12;30.55;96422.44;5051235;28;20079;-31
2022/06/09 08:23:52;;;;;;;5.55;1.70;;;;;;;27.08;30.20;96423.59;5051469;28;21817;-30
2022/06/09 08:26:18;;;;;;;3.45;1.48;;;;;;;27.05;30.06;96430.84;5051278;28;20021;-30
2022/06/09 08:28:43;;;;;;;8.32;1.60;;;;;;;27.00;30.15;96431.13;5043934;28;20107;-29
2022/06/09 08:31:09;;;;;;;6.35;1.50;;;;;;;26.95;30.01;96433.22;5045732;28;20055;-32
2022/06/09 08:33:35;;;;;;;5.03;1.50;;;;;;;26.91;30.21;96421.16;5054309;28;20040;-31
2022/06/09 08:36:01;;;;;;;7.03;2.03;;;;;;;26.90;30.22;96432.63;5047914;28;20031;-32
2022/06/09 08:38:26;;;;;;;4.53;1.58;;;;;;;26.91;30.49;96431.69;5042193;28;20794;-31
2022/06/09 08:40:57;;;;;;;6.95;2.30;;;;;;;26.92;30.34;96428.97;5043419;28;20089;-33
2022/06/09 08:43:34;;;;;;;7.78;1.67;;;;;;;26.95;30.41;96438.47;5042898;28;20062;-34
2022/06/09 08:46:18;;;;;;;3.35;1.60;;;;;;;26.99;30.57;96446.06;5041748;28;20025;-32
2022/06/09 08:48:43;;;;;;;5.88;2.22;;;;;;;27.04;30.76;96440.50;5040701;28;20024;-32
2022/06/09 08:51:15;;;;;;;5.75;2.40;;;;;;;27.07;30.74;96437.69;5047682;28;20051;-31
2022/06/09 08:53:44;;;;;;;;;;;;;;;27.11;30.89;96444.44;5042343;28;20033;-32
2022/06/09 08:56:21;;;;;;;6.20;2.10;;;;;;;27.17;30.63;96448.47;5044535;28;19998;-34
2022/06/09 08:58:48;;;;;;;5.13;2.20;;;;;;;27.19;30.63;96443.13;5048769;28;20442;-30
2022/06/09 09:01:24;;;;;;;5.63;2.25;;;;;;;27.23;30.64;96444.63;5044103;28;20696;-30
2022/06/09 09:03:56;;;;;;;7.13;2.38;;;;;;;27.26;30.58;96441.75;5045353;28;20034;-34
2022/06/09 09:06:36;;;;;;;6.05;2.38;;;;;;;27.29;30.84;96445.97;5043950;28;20024;-30
2022/06/09 09:09:08;;;;;;;6.82;2.20;;;;;;;27.33;30.80;96450.94;5040364;28;20075;-38
2022/06/09 09:11:42;;;;;;;6.22;2.50;;;;;;;27.36;30.71;96447.28;5043482;28;20045;-31
2022/06/09 09:14:13;;;;;;;6.85;2.47;;;;;;;27.38;30.79;96456.75;5046016;28;20107;-30
2022/06/09 09:16:41;;;;;;;8.73;2.60;;;;;;;27.40;30.81;96448.75;5043281;28;20107;-31
2022/06/09 09:19:22;;;;;;;7.05;2.25;;;;;;;27.43;30.94;96447.72;5045453;28;20143;-30
2022/06/09 09:22:31;;;;;;;8.93;2.90;;;;;;;27.46;30.94;96450.97;5038063;28;20056;-33
2022/06/09 09:25:11;;;;;;;10.23;2.72;;;;;;;27.47;30.79;96455.31;5036228;28;20055;-31
2022/06/09 09:27:46;;;;;;;6.88;2.63;;;;;;;27.49;30.95;96452.56;5051364;28;20158;-31
2022/06/09 09:30:23;;;;;;;6.20;2.58;;;;;;;27.52;30.63;96468.16;5038793;28;20673;-30
2022/06/09 09:32:52;;;;;;;9.23;2.72;;;;;;;27.52;31.03;96455.00;5034820;28;20150;-31
2022/06/09 09:35:20;;;;;;;6.13;2.58;;;;;;;27.55;30.93;96459.22;5051411;28;20025;-32
2022/06/09 09:37:51;;;;;;;7.32;2.40;;;;;;;27.55;30.90;96467.97;5051215;28;20039;-30
2022/06/09 09:40:28;;;;;;;6.05;2.65;;;;;;;27.56;31.25;96455.63;5051925;28;20085;-31
2022/06/09 09:42:55;;;;;;;7.82;2.60;;;;;;;27.58;30.97;96456.41;5050390;28;20052;-30
2022/06/09 09:45:42;;;;;;;6.97;3.00;;;;;;;27.58;31.11;96462.50;5049262;28;20107;-31
2022/06/09 09:48:17;;;;;;;7.72;2.72;;;;;;;27.61;31.08;96472.84;5046724;28;20036;-30
2022/06/09 09:51:00;;;;;;;5.50;2.47;;;;;;;27.62;31.02;96473.72;5051933;28;20044;-30
2022/06/09 09:53:36;;;;;;;8.93;2.60;;;;;;;27.62;31.18;96479.81;5051790;28;20041;-33
2022/06/09 09:56:07;;;;;;;5.57;2.35;;;;;;;27.63;31.25;96480.66;5049317;28;20039;-31
2022/06/09 09:58:39;;;;;;;5.50;2.50;;;;;;;27.64;31.32;96477.06;5053276;28;20657;-30
2022/06/09 10:01:16;;;;;;;5.50;2.08;;;;;;;27.64;31.28;96488.47;5051392;28;20120;-31
2022/06/09 10:09:42;;;;;;;4.80;2.13;;;;;;;27.67;31.27;96474.25;5050623;28;20044;-32
2022/06/09 10:12:27;;;;;;;7.00;2.10;;;;;;;27.68;31.28;96477.72;5047112;28;20116;-31
2022/06/09 10:15:09;;;;;;;7.90;2.50;;;;;;;27.70;31.41;96486.34;5036002;28;20028;-30
2022/06/09 10:17:35;;;;;;;6.38;2.40;;;;;;;27.71;31.42;96480.13;5051146;28;20044;-34
2022/06/09 10:20:20;;;;;;;5.80;2.28;;;;;;;27.71;31.32;96480.13;5051624;28;20036;-34
2022/06/09 10:22:57;;;;;;;5.88;2.45;;;;;;;27.72;31.52;96479.22;5054598;28;20071;-31
2022/06/09 10:25:33;;;;;;;5.03;2.28;;;;;;;27.72;31.57;96480.03;5051451;28;20040;-31
2022/06/09 10:28:17;;;;;;;486.88;24.48;;;;;;;27.74;35.31;96490.47;5052924;28;20621;-32
2022/06/09 10:30:59;;;;;;;210.50;10.60;;;;;;;27.65;40.02;96490.13;5052031;28;20138;-31
2022/06/09 10:33:44;;;;;;;6.53;1.75;;;;;;;27.65;34.07;96489.31;5048344;28;20515;-31
2022/06/09 10:36:21;;;;;;;5.60;2.15;;;;;;;27.63;33.32;96486.78;5056272;28;20061;-35
2022/06/09 10:38:49;;;;;;;5.60;1.77;;;;;;;27.64;32.88;96491.09;5050315;28;20025;-28
2022/06/09 10:41:21;;;;;;;5.65;2.20;;;;;;;27.65;32.59;96490.13;5056090;28;20557;-34
2022/06/09 10:43:57;;;;;;;5.38;2.10;;;;;;;27.68;32.63;96498.78;5050821;28;20032;-30
2022/06/09 10:46:35;;;;;;;6.15;1.85;;;;;;;27.71;32.42;96493.31;5055173;28;20062;-27
2022/06/09 10:55:24;;;;;;;3.75;2.03;;;;;;;27.80;32.04;96494.50;5046807;28;20039;-30
2022/06/09 10:57:59;;;;;;;4.65;1.70;;;;;;;27.81;32.31;96499.66;5043300;28;20028;-30
2022/06/09 11:00:30;;;;;;;3.05;1.35;;;;;;;27.84;32.21;96503.88;5023807;28;20081;-28
2022/06/09 11:02:56;;;;;;;2.83;1.38;;;;;;;27.85;32.22;96501.16;5017676;28;20078;-30
2022/06/09 11:05:30;;;;;;;8.10;1.60;;;;;;;27.88;32.17;96516.72;5029488;28;20151;-33
2022/06/09 11:08:25;;;;;;;3.50;1.88;;;;;;;27.88;32.08;96495.66;5011899;28;20701;-34
2022/06/09 11:10:59;;;;;;;4.32;1.45;;;;;;;27.90;32.04;96504.31;5024090;28;20040;-29
2022/06/09 11:13:24;;;;;;;2.47;1.60;;;;;;;27.91;32.04;96500.75;5032803;28;20060;-30
2022/06/09 11:16:02;;;;;;;3.60;1.38;;;;;;;27.94;32.11;96509.38;5047122;28;20439;-31
2022/06/09 11:18:55;;;;;;;3.55;1.45;;;;;;;27.94;32.13;96510.22;5053096;28;20037;-31
2022/06/09 11:21:32;;;;;;;4.18;1.70;;;;;;;27.96;32.13;96512.75;5044274;28;20036;-30
2022/06/09 11:24:25;;;;;;;2.78;1.23;;;;;;;27.96;32.01;96508.31;5052590;28;20113;-30
2022/06/09 11:27:02;;;;;;;4.57;1.80;;;;;;;27.97;31.92;96509.16;5052811;28;20147;-29
2022/06/09 11:30:13;;;;;;;3.53;1.60;;;;;;;27.98;32.25;96510.84;5045897;28;20218;-30
2022/06/09 11:32:47;;;;;;;2.92;1.30;;;;;;;27.98;31.96;96521.38;5044360;28;20512;-30
2022/06/09 11:35:13;;;;;;;3.65;1.65;;;;;;;27.99;32.06;96512.56;5039974;28;20046;-28
2022/06/09 11:38:09;;;;;;;3.65;1.50;;;;;;;28.00;32.05;96508.97;5046816;28;20262;-29
2022/06/09 11:40:52;;;;;;;3.33;1.30;;;;;;;28.00;32.16;96515.06;5043865;28;20028;-30
2022/06/09 11:43:54;;;;;;;3.13;1.50;;;;;;;28.00;32.13;96520.34;5042415;28;20036;-34
2022/06/09 11:46:24;;;;;;;3.75;1.48;;;;;;;27.98;32.01;96510.84;5042123;28;20029;-33
2022/06/09 11:48:52;;;;;;;3.13;1.33;;;;;;;28.01;32.19;96515.91;5043938;28;20050;-32
2022/06/09 11:51:19;;;;;;;3.15;1.35;;;;;;;28.02;31.74;96514.97;5039032;28;20032;-30
2022/06/09 11:53:56;;;;;;;3.33;1.25;;;;;;;28.02;32.17;96520.25;5041290;28;20496;-31
2022/06/09 11:56:40;;;;;;;2.78;1.40;;;;;;;28.02;32.23;96514.97;5039164;28;20110;-28
2022/06/09 11:59:11;;;;;;;2.65;1.25;;;;;;;28.03;32.29;96512.25;5045121;28;20035;-30
2022/06/09 12:01:39;;;;;;;2.53;1.15;;;;;;;28.04;32.25;96513.09;5043762;28;20032;-28